sensor_id;sensor_type;location;lat;lon;timestamp;pressure;altitude;pressure_sealevel;temperature;humidity
73870;BME280;64924;42.140;24.762;2023-04-24T00:01:14;99508.03;;;13.12;50.53
73870;BME280;64924;42.140;24.762;2023-04-24T00:03:42;99496.13;;;12.99;51.27
73870;BME280;64924;42.140;24.762;2023-04-24T00:06:08;99504.97;;;12.95;51.16
73870;BME280;64924;42.140;24.762;2023-04-24T00:08:35;99504.31;;;12.99;51.36
73870;BME280;64924;42.140;24.762;2023-04-24T00:11:01;99499.66;;;13.00;51.14
73870;BME280;64924;42.140;24.762;2023-04-24T00:13:26;99464.94;;;12.76;51.38
73870;BME280;64924;42.140;24.762;2023-04-24T00:15:54;99505.38;;;12.92;51.49
73870;BME280;64924;42.140;24.762;2023-04-24T00:18:20;99464.94;;;12.76;51.15
73870;BME280;64924;42.140;24.762;2023-04-24T00:20:45;99497.34;;;13.17;50.82
73870;BME280;64924;42.140;24.762;2023-04-24T00:23:12;99467.34;;;13.03;50.63
73870;BME280;64924;42.140;24.762;2023-04-24T00:25:38;99490.81;;;13.11;50.85
73870;BME280;64924;42.140;24.762;2023-04-24T00:28:03;99496.28;;;13.11;50.92
73870;BME280;64924;42.140;24.762;2023-04-24T00:30:29;99512.22;;;13.14;50.94
73870;BME280;64924;42.140;24.762;2023-04-24T00:32:54;99501.81;;;12.91;51.48
73870;BME280;64924;42.140;24.762;2023-04-24T00:35:20;99498.28;;;12.71;52.33
73870;BME280;64924;42.140;24.762;2023-04-24T00:37:45;99500.25;;;12.57;52.74
73870;BME280;64924;42.140;24.762;2023-04-24T00:40:11;99497.09;;;12.60;52.76
73870;BME280;64924;42.140;24.762;2023-04-24T00:42:37;99461.19;;;12.63;52.24
73870;BME280;64924;42.140;24.762;2023-04-24T00:45:04;99493.34;;;13.06;51.45
73870;BME280;64924;42.140;24.762;2023-04-24T00:47:30;99496.72;;;13.01;51.71
73870;BME280;64924;42.140;24.762;2023-04-24T00:49:56;99489.56;;;13.07;51.53
73870;BME280;64924;42.140;24.762;2023-04-24T00:52:22;99473.63;;;13.11;51.02
73870;BME280;64924;42.140;24.762;2023-04-24T00:54:49;99468.63;;;13.01;51.27
73870;BME280;64924;42.140;24.762;2023-04-24T00:57:15;99467.78;;;13.00;51.06
73870;BME280;64924;42.140;24.762;2023-04-24T00:59:44;99496.06;;;13.13;51.12
73870;BME280;64924;42.140;24.762;2023-04-24T01:02:11;99502.16;;;13.08;51.55
73870;BME280;64924;42.140;24.762;2023-04-24T01:04:37;99502.56;;;13.18;51.13
73870;BME280;64924;42.140;24.762;2023-04-24T01:07:03;99496.78;;;12.95;51.85
73870;BME280;64924;42.140;24.762;2023-04-24T01:09:35;99505.13;;;13.00;51.69
73870;BME280;64924;42.140;24.762;2023-04-24T01:12:01;99467.03;;;12.80;51.95
73870;BME280;64924;42.140;24.762;2023-04-24T01:14:26;99447.97;;;12.73;51.95
73870;BME280;64924;42.140;24.762;2023-04-24T01:16:52;99470.38;;;12.89;51.42
73870;BME280;64924;42.140;24.762;2023-04-24T01:19:18;99505.50;;;13.23;51.31
73870;BME280;64924;42.140;24.762;2023-04-24T01:21:47;99497.09;;;13.25;51.08
73870;BME280;64924;42.140;24.762;2023-04-24T01:24:15;99490.16;;;13.29;50.96
73870;BME280;64924;42.140;24.762;2023-04-24T01:26:41;99480.06;;;13.36;50.59
73870;BME280;64924;42.140;24.762;2023-04-24T01:29:07;99488.38;;;13.41;50.74
73870;BME280;64924;42.140;24.762;2023-04-24T01:31:33;99482.72;;;13.43;50.46
73870;BME280;64924;42.140;24.762;2023-04-24T01:33:59;99489.41;;;13.47;50.43
73870;BME280;64924;42.140;24.762;2023-04-24T01:36:27;99486.91;;;13.45;50.51
73870;BME280;64924;42.140;24.762;2023-04-24T01:38:52;99465.81;;;13.27;50.68
73870;BME280;64924;42.140;24.762;2023-04-24T01:41:18;99506.59;;;13.54;50.33
73870;BME280;64924;42.140;24.762;2023-04-24T01:43:44;99508.88;;;13.57;50.30
73870;BME280;64924;42.140;24.762;2023-04-24T01:46:09;99496.28;;;13.56;50.12
73870;BME280;64924;42.140;24.762;2023-04-24T01:48:35;99463.00;;;13.41;50.37
73870;BME280;64924;42.140;24.762;2023-04-24T01:51:00;99495.59;;;13.67;50.36
73870;BME280;64924;42.140;24.762;2023-04-24T01:53:26;99493.31;;;13.64;50.83
73870;BME280;64924;42.140;24.762;2023-04-24T01:55:51;99377.25;;;12.85;50.69
73870;BME280;64924;42.140;24.762;2023-04-24T01:58:17;99496.16;;;13.37;51.79
73870;BME280;64924;42.140;24.762;2023-04-24T02:00:43;99487.44;;;13.22;51.52
73870;BME280;64924;42.140;24.762;2023-04-24T02:03:08;99493.97;;;13.21;51.89
73870;BME280;64924;42.140;24.762;2023-04-24T02:05:33;99499.22;;;13.10;52.32
73870;BME280;64924;42.140;24.762;2023-04-24T02:07:59;99454.75;;;12.58;52.90
73870;BME280;64924;42.140;24.762;2023-04-24T02:10:25;99475.44;;;12.72;53.01
73870;BME280;64924;42.140;24.762;2023-04-24T02:12:50;99498.09;;;12.66;53.48
73870;BME280;64924;42.140;24.762;2023-04-24T02:15:16;99468.78;;;12.61;53.58
73870;BME280;64924;42.140;24.762;2023-04-24T02:17:43;99475.84;;;12.76;53.41
73870;BME280;64924;42.140;24.762;2023-04-24T02:20:08;99477.72;;;12.88;52.68
73870;BME280;64924;42.140;24.762;2023-04-24T02:22:34;99480.38;;;13.01;52.21
73870;BME280;64924;42.140;24.762;2023-04-24T02:25:00;99438.13;;;12.72;52.40
73870;BME280;64924;42.140;24.762;2023-04-24T02:27:25;99470.75;;;12.99;52.31
73870;BME280;64924;42.140;24.762;2023-04-24T02:29:51;99451.81;;;13.04;52.13
73870;BME280;64924;42.140;24.762;2023-04-24T02:32:16;99459.78;;;13.05;52.13
73870;BME280;64924;42.140;24.762;2023-04-24T02:34:41;99471.75;;;13.04;52.15
73870;BME280;64924;42.140;24.762;2023-04-24T02:37:07;99461.44;;;13.13;52.03
73870;BME280;64924;42.140;24.762;2023-04-24T02:39:32;99471.50;;;13.19;52.02
73870;BME280;64924;42.140;24.762;2023-04-24T02:41:58;99466.63;;;13.34;51.58
73870;BME280;64924;42.140;24.762;2023-04-24T02:44:23;99457.63;;;13.27;51.48
73870;BME280;64924;42.140;24.762;2023-04-24T02:46:49;99469.16;;;13.29;51.84
73870;BME280;64924;42.140;24.762;2023-04-24T02:49:14;99418.31;;;12.97;51.88
73870;BME280;64924;42.140;24.762;2023-04-24T02:51:40;99460.38;;;13.14;51.99
73870;BME280;64924;42.140;24.762;2023-04-24T02:54:10;99464.75;;;13.28;51.66
73870;BME280;64924;42.140;24.762;2023-04-24T02:56:36;99478.75;;;13.38;51.39
73870;BME280;64924;42.140;24.762;2023-04-24T02:59:01;99479.03;;;13.30;51.57
73870;BME280;64924;42.140;24.762;2023-04-24T03:01:27;99472.28;;;13.33;52.03
73870;BME280;64924;42.140;24.762;2023-04-24T03:03:52;99466.44;;;13.29;51.71
73870;BME280;64924;42.140;24.762;2023-04-24T03:06:18;99464.50;;;13.36;52.15
73870;BME280;64924;42.140;24.762;2023-04-24T03:08:43;99476.91;;;13.32;52.02
73870;BME280;64924;42.140;24.762;2023-04-24T03:11:09;99479.66;;;13.32;51.59
73870;BME280;64924;42.140;24.762;2023-04-24T03:13:34;99472.09;;;13.28;51.80
73870;BME280;64924;42.140;24.762;2023-04-24T03:16:00;99472.91;;;13.35;51.84
73870;BME280;64924;42.140;24.762;2023-04-24T03:18:25;99492.59;;;13.37;51.60
73870;BME280;64924;42.140;24.762;2023-04-24T03:20:51;99477.53;;;13.34;51.63
73870;BME280;64924;42.140;24.762;2023-04-24T03:23:16;99480.94;;;13.23;52.03
73870;BME280;64924;42.140;24.762;2023-04-24T03:25:42;99477.06;;;12.93;52.56
73870;BME280;64924;42.140;24.762;2023-04-24T03:28:08;99475.63;;;12.84;52.98
73870;BME280;64924;42.140;24.762;2023-04-24T03:30:33;99470.59;;;12.81;52.70
73870;BME280;64924;42.140;24.762;2023-04-24T03:33:00;99488.19;;;12.91;52.78
73870;BME280;64924;42.140;24.762;2023-04-24T03:35:25;99496.38;;;12.85;53.23
73870;BME280;64924;42.140;24.762;2023-04-24T03:37:51;99487.16;;;12.86;52.82
73870;BME280;64924;42.140;24.762;2023-04-24T03:40:16;99490.06;;;12.97;52.45
73870;BME280;64924;42.140;24.762;2023-04-24T03:42:42;99492.31;;;13.07;52.48
73870;BME280;64924;42.140;24.762;2023-04-24T03:45:08;99479.50;;;13.07;52.07
73870;BME280;64924;42.140;24.762;2023-04-24T03:47:33;99487.41;;;13.35;52.15
73870;BME280;64924;42.140;24.762;2023-04-24T03:49:59;99484.28;;;13.63;51.34
73870;BME280;64924;42.140;24.762;2023-04-24T03:52:25;99489.50;;;13.96;50.64
73870;BME280;64924;42.140;24.762;2023-04-24T03:54:50;99477.56;;;14.16;49.66
73870;BME280;64924;42.140;24.762;2023-04-24T03:57:16;99472.41;;;14.51;48.63
73870;BME280;64924;42.140;24.762;2023-04-24T03:59:41;99469.84;;;14.92;47.88
73870;BME280;64924;42.140;24.762;2023-04-24T04:02:06;99434.44;;;15.16;46.86
73870;BME280;64924;42.140;24.762;2023-04-24T04:04:32;99470.53;;;15.54;45.85
73870;BME280;64924;42.140;24.762;2023-04-24T04:06:58;99432.03;;;15.79;45.24
73870;BME280;64924;42.140;24.762;2023-04-24T04:09:26;99473.19;;;16.61;43.44
73870;BME280;64924;42.140;24.762;2023-04-24T04:11:52;99455.84;;;17.07;42.37
73870;BME280;64924;42.140;24.762;2023-04-24T04:14:17;99479.31;;;17.83;40.78
73870;BME280;64924;42.140;24.762;2023-04-24T04:16:43;99488.66;;;18.49;39.69
73870;BME280;64924;42.140;24.762;2023-04-24T04:19:08;99484.38;;;18.92;39.11
73870;BME280;64924;42.140;24.762;2023-04-24T04:21:34;99483.34;;;19.20;38.25
73870;BME280;64924;42.140;24.762;2023-04-24T04:23:59;99485.63;;;19.50;37.39
73870;BME280;64924;42.140;24.762;2023-04-24T04:26:24;99480.91;;;19.67;37.18
73870;BME280;64924;42.140;24.762;2023-04-24T04:28:51;99483.09;;;19.65;37.50
73870;BME280;64924;42.140;24.762;2023-04-24T04:31:18;99501.34;;;19.98;36.87
73870;BME280;64924;42.140;24.762;2023-04-24T04:33:43;99457.63;;;19.85;36.32
73870;BME280;64924;42.140;24.762;2023-04-24T04:36:09;99492.91;;;20.42;35.61
73870;BME280;64924;42.140;24.762;2023-04-24T04:38:34;99503.31;;;20.66;35.19
73870;BME280;64924;42.140;24.762;2023-04-24T04:41:00;99497.88;;;20.82;34.86
73870;BME280;64924;42.140;24.762;2023-04-24T04:43:26;99491.09;;;20.57;34.97
73870;BME280;64924;42.140;24.762;2023-04-24T04:45:52;99497.34;;;20.16;35.81
73870;BME280;64924;42.140;24.762;2023-04-24T04:48:18;99501.25;;;20.52;35.06
73870;BME280;64924;42.140;24.762;2023-04-24T04:50:44;99495.13;;;20.87;34.51
73870;BME280;64924;42.140;24.762;2023-04-24T04:53:09;99496.22;;;21.33;33.87
73870;BME280;64924;42.140;24.762;2023-04-24T04:55:36;99492.78;;;21.93;32.65
73870;BME280;64924;42.140;24.762;2023-04-24T04:58:01;99489.81;;;22.30;31.74
73870;BME280;64924;42.140;24.762;2023-04-24T05:00:27;99488.16;;;22.60;31.81
73870;BME280;64924;42.140;24.762;2023-04-24T05:02:54;99470.09;;;22.73;31.10
73870;BME280;64924;42.140;24.762;2023-04-24T05:05:19;99482.28;;;22.97;30.81
73870;BME280;64924;42.140;24.762;2023-04-24T05:07:45;99477.72;;;23.26;29.93
73870;BME280;64924;42.140;24.762;2023-04-24T05:10:11;99468.72;;;22.95;30.51
73870;BME280;64924;42.140;24.762;2023-04-24T05:12:37;99472.78;;;23.13;30.18
73870;BME280;64924;42.140;24.762;2023-04-24T05:15:03;99480.53;;;23.16;29.95
73870;BME280;64924;42.140;24.762;2023-04-24T05:17:28;99479.50;;;22.77;30.76
73870;BME280;64924;42.140;24.762;2023-04-24T05:19:54;99467.34;;;22.88;30.38
73870;BME280;64924;42.140;24.762;2023-04-24T05:22:19;99435.75;;;21.47;32.16
73870;BME280;64924;42.140;24.762;2023-04-24T05:24:46;99476.00;;;21.22;33.23
73870;BME280;64924;42.140;24.762;2023-04-24T05:27:12;99479.22;;;20.25;34.80
73870;BME280;64924;42.140;24.762;2023-04-24T05:29:37;99474.13;;;19.80;35.54
73870;BME280;64924;42.140;24.762;2023-04-24T05:32:03;99471.00;;;19.22;36.72
73870;BME280;64924;42.140;24.762;2023-04-24T05:34:28;99467.09;;;19.18;36.85
73870;BME280;64924;42.140;24.762;2023-04-24T05:36:54;99458.03;;;19.01;37.72
73870;BME280;64924;42.140;24.762;2023-04-24T05:39:19;99422.19;;;18.19;38.75
73870;BME280;64924;42.140;24.762;2023-04-24T05:41:45;99423.84;;;17.86;39.34
73870;BME280;64924;42.140;24.762;2023-04-24T05:44:11;99419.47;;;18.41;38.55
73870;BME280;64924;42.140;24.762;2023-04-24T05:46:36;99456.22;;;18.68;38.40
73870;BME280;64924;42.140;24.762;2023-04-24T05:49:02;99434.00;;;19.40;37.03
73870;BME280;64924;42.140;24.762;2023-04-24T05:51:28;99451.31;;;20.53;35.22
73870;BME280;64924;42.140;24.762;2023-04-24T05:53:53;99440.97;;;20.76;34.31
73870;BME280;64924;42.140;24.762;2023-04-24T05:56:19;99449.56;;;20.42;34.94
73870;BME280;64924;42.140;24.762;2023-04-24T05:58:46;99444.72;;;19.15;36.94
73870;BME280;64924;42.140;24.762;2023-04-24T06:01:12;99462.28;;;18.15;39.26
73870;BME280;64924;42.140;24.762;2023-04-24T06:03:40;99462.69;;;17.33;41.68
73870;BME280;64924;42.140;24.762;2023-04-24T06:06:06;99461.50;;;16.54;43.86
73870;BME280;64924;42.140;24.762;2023-04-24T06:08:32;99466.28;;;16.47;44.57
73870;BME280;64924;42.140;24.762;2023-04-24T06:10:58;99474.88;;;16.74;44.00
73870;BME280;64924;42.140;24.762;2023-04-24T06:13:23;99467.75;;;17.81;42.33
73870;BME280;64924;42.140;24.762;2023-04-24T06:15:48;99431.34;;;18.08;40.62
73870;BME280;64924;42.140;24.762;2023-04-24T06:18:14;99458.25;;;18.22;41.02
73870;BME280;64924;42.140;24.762;2023-04-24T06:20:40;99455.38;;;19.28;39.22
73870;BME280;64924;42.140;24.762;2023-04-24T06:23:05;99458.41;;;20.86;36.13
73870;BME280;64924;42.140;24.762;2023-04-24T06:25:31;99458.69;;;21.57;34.36
73870;BME280;64924;42.140;24.762;2023-04-24T06:27:57;99464.63;;;22.32;33.26
73870;BME280;64924;42.140;24.762;2023-04-24T06:30:23;99457.91;;;22.89;32.08
73870;BME280;64924;42.140;24.762;2023-04-24T06:32:48;99455.34;;;23.08;31.75
73870;BME280;64924;42.140;24.762;2023-04-24T06:35:14;99445.53;;;23.85;30.55
73870;BME280;64924;42.140;24.762;2023-04-24T06:37:40;99447.22;;;23.81;30.50
73870;BME280;64924;42.140;24.762;2023-04-24T06:40:06;99451.66;;;24.79;29.20
73870;BME280;64924;42.140;24.762;2023-04-24T06:42:32;99446.47;;;24.43;29.35
73870;BME280;64924;42.140;24.762;2023-04-24T06:44:58;99442.41;;;24.30;29.83
73870;BME280;64924;42.140;24.762;2023-04-24T06:47:23;99452.75;;;24.83;29.13
73870;BME280;64924;42.140;24.762;2023-04-24T06:49:49;99445.03;;;24.75;29.31
73870;BME280;64924;42.140;24.762;2023-04-24T06:52:16;99446.97;;;24.50;29.59
73870;BME280;64924;42.140;24.762;2023-04-24T06:54:41;99452.22;;;24.52;29.47
73870;BME280;64924;42.140;24.762;2023-04-24T06:57:08;99453.56;;;24.54;29.70
73870;BME280;64924;42.140;24.762;2023-04-24T06:59:33;99456.38;;;25.07;28.87
73870;BME280;64924;42.140;24.762;2023-04-24T07:01:59;99450.34;;;24.95;29.10
73870;BME280;64924;42.140;24.762;2023-04-24T07:04:25;99423.28;;;24.82;29.42
73870;BME280;64924;42.140;24.762;2023-04-24T07:06:51;99457.72;;;24.86;29.34
73870;BME280;64924;42.140;24.762;2023-04-24T07:09:19;99456.94;;;24.80;29.34
73870;BME280;64924;42.140;24.762;2023-04-24T07:11:45;99468.19;;;25.42;28.09
73870;BME280;64924;42.140;24.762;2023-04-24T07:14:11;99456.16;;;25.46;28.02
73870;BME280;64924;42.140;24.762;2023-04-24T07:16:37;99463.31;;;24.81;28.83
73870;BME280;64924;42.140;24.762;2023-04-24T07:19:03;99463.47;;;24.89;28.88
73870;BME280;64924;42.140;24.762;2023-04-24T07:21:28;99439.47;;;25.04;28.35
73870;BME280;64924;42.140;24.762;2023-04-24T07:23:54;99465.75;;;25.96;26.62
73870;BME280;64924;42.140;24.762;2023-04-24T07:26:20;99449.69;;;26.26;26.58
73870;BME280;64924;42.140;24.762;2023-04-24T07:28:46;99458.41;;;26.38;26.35
73870;BME280;64924;42.140;24.762;2023-04-24T07:31:11;99391.84;;;26.37;25.88
73870;BME280;64924;42.140;24.762;2023-04-24T07:33:37;99446.56;;;27.34;25.37
73870;BME280;64924;42.140;24.762;2023-04-24T07:36:03;99448.94;;;27.40;25.45
73870;BME280;64924;42.140;24.762;2023-04-24T07:38:29;99425.53;;;26.54;26.21
73870;BME280;64924;42.140;24.762;2023-04-24T07:40:55;99461.88;;;26.30;26.45
73870;BME280;64924;42.140;24.762;2023-04-24T07:43:21;99448.53;;;25.76;27.35
73870;BME280;64924;42.140;24.762;2023-04-24T07:45:46;99459.09;;;26.30;27.15
73870;BME280;64924;42.140;24.762;2023-04-24T07:48:12;99452.16;;;27.06;25.92
73870;BME280;64924;42.140;24.762;2023-04-24T07:50:41;99441.56;;;27.94;25.08
73870;BME280;64924;42.140;24.762;2023-04-24T07:53:07;99450.31;;;28.68;24.12
73870;BME280;64924;42.140;24.762;2023-04-24T07:55:32;99438.84;;;29.49;22.72
73870;BME280;64924;42.140;24.762;2023-04-24T07:57:58;99429.00;;;29.94;22.41
73870;BME280;64924;42.140;24.762;2023-04-24T08:00:23;99435.91;;;30.14;21.94
73870;BME280;64924;42.140;24.762;2023-04-24T08:02:49;99416.16;;;28.80;22.96
73870;BME280;64924;42.140;24.762;2023-04-24T08:05:14;99413.97;;;26.60;25.75
73870;BME280;64924;42.140;24.762;2023-04-24T08:07:40;99441.13;;;26.04;26.78
73870;BME280;64924;42.140;24.762;2023-04-24T08:10:09;99442.84;;;25.43;27.40
73870;BME280;64924;42.140;24.762;2023-04-24T08:12:35;99436.41;;;24.76;28.29
73870;BME280;64924;42.140;24.762;2023-04-24T08:15:00;99432.38;;;24.63;28.96
73870;BME280;64924;42.140;24.762;2023-04-24T08:17:26;99428.31;;;24.80;28.89
73870;BME280;64924;42.140;24.762;2023-04-24T08:19:51;99432.28;;;25.21;27.99
73870;BME280;64924;42.140;24.762;2023-04-24T08:22:18;99422.94;;;25.12;27.80
73870;BME280;64924;42.140;24.762;2023-04-24T08:24:44;99424.59;;;24.37;29.21
73870;BME280;64924;42.140;24.762;2023-04-24T08:27:10;99425.47;;;23.59;30.42
73870;BME280;64924;42.140;24.762;2023-04-24T08:29:36;99414.19;;;23.84;30.24
73870;BME280;64924;42.140;24.762;2023-04-24T08:32:02;99414.00;;;24.67;29.24
73870;BME280;64924;42.140;24.762;2023-04-24T08:34:27;99411.50;;;25.56;28.42
73870;BME280;64924;42.140;24.762;2023-04-24T08:36:53;99403.53;;;26.20;27.33
73870;BME280;64924;42.140;24.762;2023-04-24T08:39:18;99395.13;;;26.06;27.42
73870;BME280;64924;42.140;24.762;2023-04-24T08:41:44;99401.19;;;25.57;27.86
73870;BME280;64924;42.140;24.762;2023-04-24T08:44:11;99411.34;;;25.48;28.01
73870;BME280;64924;42.140;24.762;2023-04-24T08:46:39;99394.63;;;25.10;28.29
73870;BME280;64924;42.140;24.762;2023-04-24T08:49:06;99400.78;;;24.54;28.93
73870;BME280;64924;42.140;24.762;2023-04-24T08:51:31;99405.16;;;24.03;29.75
73870;BME280;64924;42.140;24.762;2023-04-24T08:53:57;99384.50;;;24.48;28.67
73870;BME280;64924;42.140;24.762;2023-04-24T08:56:23;99385.56;;;24.76;28.45
73870;BME280;64924;42.140;24.762;2023-04-24T08:58:53;99376.59;;;24.84;29.00
73870;BME280;64924;42.140;24.762;2023-04-24T09:01:20;99386.75;;;25.17;28.56
73870;BME280;64924;42.140;24.762;2023-04-24T09:03:48;99379.78;;;24.72;29.15
73870;BME280;64924;42.140;24.762;2023-04-24T09:06:14;99369.34;;;24.35;29.82
73870;BME280;64924;42.140;24.762;2023-04-24T09:08:42;99375.13;;;24.10;30.95
73870;BME280;64924;42.140;24.762;2023-04-24T09:11:09;99378.19;;;24.08;30.70
73870;BME280;64924;42.140;24.762;2023-04-24T09:13:35;99360.09;;;23.82;30.54
73870;BME280;64924;42.140;24.762;2023-04-24T09:16:01;99341.94;;;23.16;31.68
73870;BME280;64924;42.140;24.762;2023-04-24T09:18:26;99382.09;;;22.59;32.90
73870;BME280;64924;42.140;24.762;2023-04-24T09:21:00;99341.22;;;21.80;33.53
73870;BME280;64924;42.140;24.762;2023-04-24T09:23:27;99350.34;;;21.65;33.23
73870;BME280;64924;42.140;24.762;2023-04-24T09:25:57;99375.53;;;22.15;33.69
73870;BME280;64924;42.140;24.762;2023-04-24T09:28:41;99330.16;;;22.16;32.75
73870;BME280;64924;42.140;24.762;2023-04-24T09:31:13;99325.94;;;22.28;32.90
73870;BME280;64924;42.140;24.762;2023-04-24T09:33:40;99363.63;;;22.09;34.21
73870;BME280;64924;42.140;24.762;2023-04-24T09:36:06;99366.09;;;21.65;35.91
73870;BME280;64924;42.140;24.762;2023-04-24T09:41:00;99363.03;;;21.56;36.75
73870;BME280;64924;42.140;24.762;2023-04-24T09:43:26;99356.97;;;21.59;36.84
73870;BME280;64924;42.140;24.762;2023-04-24T09:45:56;99368.16;;;21.02;38.08
73870;BME280;64924;42.140;24.762;2023-04-24T09:48:30;99310.09;;;20.77;37.84
73870;BME280;64924;42.140;24.762;2023-04-24T09:50:56;99343.22;;;20.82;37.82
73870;BME280;64924;42.140;24.762;2023-04-24T09:53:25;99304.09;;;21.05;37.30
73870;BME280;64924;42.140;24.762;2023-04-24T09:55:51;99331.53;;;21.67;36.52
73870;BME280;64924;42.140;24.762;2023-04-24T09:58:24;99330.16;;;21.75;35.75
73870;BME280;64924;42.140;24.762;2023-04-24T10:00:49;99329.63;;;21.53;36.27
73870;BME280;64924;42.140;24.762;2023-04-24T10:03:18;99331.53;;;21.37;36.77
73870;BME280;64924;42.140;24.762;2023-04-24T10:05:46;99326.03;;;21.52;36.84
73870;BME280;64924;42.140;24.762;2023-04-24T10:08:12;99290.59;;;21.29;37.08
73870;BME280;64924;42.140;24.762;2023-04-24T10:10:43;99335.69;;;21.70;36.97
73870;BME280;64924;42.140;24.762;2023-04-24T10:13:10;99339.25;;;21.55;36.79
73870;BME280;64924;42.140;24.762;2023-04-24T10:15:37;99332.34;;;21.38;36.29
73870;BME280;64924;42.140;24.762;2023-04-24T10:18:05;99331.47;;;21.12;37.57
73870;BME280;64924;42.140;24.762;2023-04-24T10:20:32;99312.00;;;20.81;37.72
73870;BME280;64924;42.140;24.762;2023-04-24T10:22:59;99317.63;;;21.01;37.44
73870;BME280;64924;42.140;24.762;2023-04-24T10:25:30;99257.38;;;20.93;36.97
73870;BME280;64924;42.140;24.762;2023-04-24T10:27:56;99272.38;;;21.38;36.87
73870;BME280;64924;42.140;24.762;2023-04-24T10:30:27;99311.31;;;21.97;36.19
73870;BME280;64924;42.140;24.762;2023-04-24T10:32:53;99308.59;;;21.47;36.62
73870;BME280;64924;42.140;24.762;2023-04-24T10:35:19;99293.03;;;21.20;37.58
73870;BME280;64924;42.140;24.762;2023-04-24T10:37:55;99250.53;;;21.21;37.64
73870;BME280;64924;42.140;24.762;2023-04-24T10:40:27;99293.13;;;21.51;37.44
73870;BME280;64924;42.140;24.762;2023-04-24T10:42:53;99281.50;;;21.44;37.40
73870;BME280;64924;42.140;24.762;2023-04-24T10:45:20;99235.03;;;21.10;37.48
73870;BME280;64924;42.140;24.762;2023-04-24T10:48:04;99283.44;;;21.48;37.39
73870;BME280;64924;42.140;24.762;2023-04-24T10:50:46;99266.25;;;21.82;37.05
73870;BME280;64924;42.140;24.762;2023-04-24T10:53:16;99266.25;;;21.82;37.11
73870;BME280;64924;42.140;24.762;2023-04-24T10:55:47;99263.78;;;21.60;37.53
73870;BME280;64924;42.140;24.762;2023-04-24T10:58:14;99245.00;;;21.37;38.23
73870;BME280;64924;42.140;24.762;2023-04-24T11:00:42;99225.09;;;21.29;37.72
73870;BME280;64924;42.140;24.762;2023-04-24T11:06:07;99248.28;;;21.84;37.40
73870;BME280;64924;42.140;24.762;2023-04-24T11:08:42;99258.75;;;21.92;37.37
73870;BME280;64924;42.140;24.762;2023-04-24T11:11:17;99247.47;;;21.63;37.70
73870;BME280;64924;42.140;24.762;2023-04-24T11:14:04;99251.06;;;21.74;37.73
73870;BME280;64924;42.140;24.762;2023-04-24T11:16:33;99225.09;;;21.60;37.71
73870;BME280;64924;42.140;24.762;2023-04-24T11:21:59;99253.81;;;21.74;37.88
73870;BME280;64924;42.140;24.762;2023-04-24T11:26:53;99206.84;;;21.08;38.07
73870;BME280;64924;42.140;24.762;2023-04-24T11:29:20;99227.88;;;21.34;38.14
73870;BME280;64924;42.140;24.762;2023-04-24T11:31:46;99223.19;;;21.50;38.29
73870;BME280;64924;42.140;24.762;2023-04-24T11:34:15;99206.56;;;21.65;37.55
73870;BME280;64924;42.140;24.762;2023-04-24T11:36:47;99176.94;;;21.81;37.24
73870;BME280;64924;42.140;24.762;2023-04-24T11:39:14;99208.38;;;22.21;37.27
73870;BME280;64924;42.140;24.762;2023-04-24T11:41:40;99185.09;;;22.27;36.67
73870;BME280;64924;42.140;24.762;2023-04-24T11:44:07;99173.84;;;22.57;36.56
73870;BME280;64924;42.140;24.762;2023-04-24T11:46:33;99177.69;;;22.61;36.38
73870;BME280;64924;42.140;24.762;2023-04-24T11:48:59;99209.13;;;22.86;36.55
73870;BME280;64924;42.140;24.762;2023-04-24T11:51:26;99198.97;;;23.10;35.84
73870;BME280;64924;42.140;24.762;2023-04-24T11:53:56;99189.84;;;23.10;36.07
73870;BME280;64924;42.140;24.762;2023-04-24T11:56:23;99180.56;;;23.24;35.70
73870;BME280;64924;42.140;24.762;2023-04-24T11:58:48;99185.16;;;23.05;35.89
73870;BME280;64924;42.140;24.762;2023-04-24T12:01:14;99179.53;;;22.81;36.53
73870;BME280;64924;42.140;24.762;2023-04-24T12:03:41;99175.41;;;22.68;36.71
73870;BME280;64924;42.140;24.762;2023-04-24T12:06:11;99165.22;;;22.64;36.82
73870;BME280;64924;42.140;24.762;2023-04-24T12:08:37;99164.78;;;22.42;37.23
73870;BME280;64924;42.140;24.762;2023-04-24T12:11:04;99163.69;;;22.38;37.72
73870;BME280;64924;42.140;24.762;2023-04-24T12:13:32;99164.00;;;22.31;37.77
73870;BME280;64924;42.140;24.762;2023-04-24T12:15:58;99100.03;;;21.88;38.23
73870;BME280;64924;42.140;24.762;2023-04-24T12:18:24;99054.78;;;21.54;38.53
73870;BME280;64924;42.140;24.762;2023-04-24T12:20:50;99138.41;;;22.05;38.88
73870;BME280;64924;42.140;24.762;2023-04-24T12:23:16;99104.94;;;22.07;38.91
73870;BME280;64924;42.140;24.762;2023-04-24T12:25:42;99104.91;;;22.12;38.78
73870;BME280;64924;42.140;24.762;2023-04-24T12:28:11;99076.16;;;22.02;39.23
73870;BME280;64924;42.140;24.762;2023-04-24T12:30:49;99106.25;;;22.19;38.86
73870;BME280;64924;42.140;24.762;2023-04-24T12:33:21;99091.09;;;22.07;39.20
73870;BME280;64924;42.140;24.762;2023-04-24T12:35:48;99095.53;;;22.02;39.03
73870;BME280;64924;42.140;24.762;2023-04-24T12:38:15;99081.13;;;22.00;38.34
73870;BME280;64924;42.140;24.762;2023-04-24T12:40:41;99084.69;;;22.16;38.88
73870;BME280;64924;42.140;24.762;2023-04-24T12:43:20;99072.63;;;22.36;38.43
73870;BME280;64924;42.140;24.762;2023-04-24T12:45:48;99073.31;;;22.23;38.45
73870;BME280;64924;42.140;24.762;2023-04-24T12:48:14;99063.78;;;22.34;38.42
73870;BME280;64924;42.140;24.762;2023-04-24T12:50:39;99069.28;;;22.44;38.38
73870;BME280;64924;42.140;24.762;2023-04-24T12:53:06;99072.34;;;22.38;38.13
73870;BME280;64924;42.140;24.762;2023-04-24T12:55:31;99071.16;;;22.10;38.29
73870;BME280;64924;42.140;24.762;2023-04-24T12:57:57;99063.13;;;22.13;38.53